sensor_id;sensor_type;location;lat;lon;timestamp;P1;durP1;ratioP1;P2;durP2;ratioP2
9436;SDS011;4757;59.334;18.034;2023-03-02T00:01:06;1.33;;;1.03;;
9436;SDS011;4757;59.334;18.034;2023-03-02T00:03:36;8.83;;;1.00;;
9436;SDS011;4757;59.334;18.034;2023-03-02T00:06:06;4.37;;;0.70;;
9436;SDS011;4757;59.334;18.034;2023-03-02T00:08:35;4.47;;;1.20;;
9436;SDS011;4757;59.334;18.034;2023-03-02T00:11:03;1.00;;;0.70;;
9436;SDS011;4757;59.334;18.034;2023-03-02T00:13:30;4.67;;;1.37;;
9436;SDS011;4757;59.334;18.034;2023-03-02T00:15:59;9.43;;;1.47;;
9436;SDS011;4757;59.334;18.034;2023-03-02T00:18:26;13.40;;;1.93;;
9436;SDS011;4757;59.334;18.034;2023-03-02T00:20:54;2.97;;;0.90;;
9436;SDS011;4757;59.334;18.034;2023-03-02T00:23:21;2.30;;;1.03;;
9436;SDS011;4757;59.334;18.034;2023-03-02T00:25:48;4.93;;;1.00;;
9436;SDS011;4757;59.334;18.034;2023-03-02T00:28:15;2.17;;;0.90;;
9436;SDS011;4757;59.334;18.034;2023-03-02T00:30:42;2.00;;;0.60;;
9436;SDS011;4757;59.334;18.034;2023-03-02T00:33:09;2.80;;;1.00;;
9436;SDS011;4757;59.334;18.034;2023-03-02T00:35:38;0.80;;;0.80;;
9436;SDS011;4757;59.334;18.034;2023-03-02T00:38:06;2.30;;;0.90;;
9436;SDS011;4757;59.334;18.034;2023-03-02T00:40:34;1.77;;;0.97;;
9436;SDS011;4757;59.334;18.034;2023-03-02T00:43:02;1.50;;;1.10;;
9436;SDS011;4757;59.334;18.034;2023-03-02T00:45:29;0.90;;;0.80;;
9436;SDS011;4757;59.334;18.034;2023-03-02T00:47:56;7.07;;;1.10;;
9436;SDS011;4757;59.334;18.034;2023-03-02T00:50:24;4.10;;;1.50;;
9436;SDS011;4757;59.334;18.034;2023-03-02T00:52:51;1.37;;;0.70;;
9436;SDS011;4757;59.334;18.034;2023-03-02T00:55:18;4.00;;;1.30;;
9436;SDS011;4757;59.334;18.034;2023-03-02T00:57:45;2.27;;;0.83;;
9436;SDS011;4757;59.334;18.034;2023-03-02T01:00:21;0.73;;;0.73;;
9436;SDS011;4757;59.334;18.034;2023-03-02T01:02:49;6.00;;;1.97;;
9436;SDS011;4757;59.334;18.034;2023-03-02T01:05:16;3.43;;;0.70;;
9436;SDS011;4757;59.334;18.034;2023-03-02T01:07:43;1.87;;;0.80;;
9436;SDS011;4757;59.334;18.034;2023-03-02T01:10:11;3.13;;;0.90;;
9436;SDS011;4757;59.334;18.034;2023-03-02T01:12:38;0.97;;;0.80;;
9436;SDS011;4757;59.334;18.034;2023-03-02T01:15:06;1.33;;;0.80;;
9436;SDS011;4757;59.334;18.034;2023-03-02T01:17:35;4.53;;;0.90;;
9436;SDS011;4757;59.334;18.034;2023-03-02T01:20:02;1.63;;;0.90;;
9436;SDS011;4757;59.334;18.034;2023-03-02T01:22:33;2.07;;;0.57;;
9436;SDS011;4757;59.334;18.034;2023-03-02T01:25:02;4.57;;;1.27;;
9436;SDS011;4757;59.334;18.034;2023-03-02T01:27:29;1.03;;;0.60;;
9436;SDS011;4757;59.334;18.034;2023-03-02T01:29:57;0.93;;;0.60;;
9436;SDS011;4757;59.334;18.034;2023-03-02T01:32:24;4.40;;;1.20;;
9436;SDS011;4757;59.334;18.034;2023-03-02T01:34:52;0.80;;;0.50;;
9436;SDS011;4757;59.334;18.034;2023-03-02T01:37:19;1.90;;;0.80;;
9436;SDS011;4757;59.334;18.034;2023-03-02T01:39:48;1.80;;;0.50;;
9436;SDS011;4757;59.334;18.034;2023-03-02T01:42:16;1.77;;;0.87;;
9436;SDS011;4757;59.334;18.034;2023-03-02T01:44:47;2.10;;;0.80;;
9436;SDS011;4757;59.334;18.034;2023-03-02T01:50:18;4.53;;;1.10;;
9436;SDS011;4757;59.334;18.034;2023-03-02T01:52:54;1.03;;;0.67;;
9436;SDS011;4757;59.334;18.034;2023-03-02T01:55:23;1.10;;;0.80;;
9436;SDS011;4757;59.334;18.034;2023-03-02T01:57:54;0.80;;;0.60;;
9436;SDS011;4757;59.334;18.034;2023-03-02T02:00:24;0.83;;;0.60;;
9436;SDS011;4757;59.334;18.034;2023-03-02T02:02:56;0.97;;;0.60;;
9436;SDS011;4757;59.334;18.034;2023-03-02T02:05:38;0.83;;;0.50;;
9436;SDS011;4757;59.334;18.034;2023-03-02T02:08:08;0.70;;;0.70;;
9436;SDS011;4757;59.334;18.034;2023-03-02T02:10:35;1.07;;;0.80;;
9436;SDS011;4757;59.334;18.034;2023-03-02T02:13:02;0.87;;;0.50;;
9436;SDS011;4757;59.334;18.034;2023-03-02T02:15:29;2.27;;;1.00;;
9436;SDS011;4757;59.334;18.034;2023-03-02T02:17:57;2.17;;;1.17;;
9436;SDS011;4757;59.334;18.034;2023-03-02T02:23:23;0.70;;;0.50;;
9436;SDS011;4757;59.334;18.034;2023-03-02T02:28:19;0.57;;;0.53;;
9436;SDS011;4757;59.334;18.034;2023-03-02T02:33:45;2.10;;;0.60;;
9436;SDS011;4757;59.334;18.034;2023-03-02T02:36:18;0.63;;;0.60;;
9436;SDS011;4757;59.334;18.034;2023-03-02T02:38:49;0.60;;;0.60;;
9436;SDS011;4757;59.334;18.034;2023-03-02T02:41:20;1.00;;;0.50;;
9436;SDS011;4757;59.334;18.034;2023-03-02T02:44:01;0.60;;;0.50;;
9436;SDS011;4757;59.334;18.034;2023-03-02T02:46:28;0.60;;;0.60;;
9436;SDS011;4757;59.334;18.034;2023-03-02T02:48:56;0.93;;;0.60;;
9436;SDS011;4757;59.334;18.034;2023-03-02T02:51:25;1.67;;;0.50;;
9436;SDS011;4757;59.334;18.034;2023-03-02T02:53:59;0.60;;;0.60;;
9436;SDS011;4757;59.334;18.034;2023-03-02T02:56:31;0.87;;;0.57;;
9436;SDS011;4757;59.334;18.034;2023-03-02T02:59:06;2.13;;;0.77;;
9436;SDS011;4757;59.334;18.034;2023-03-02T03:01:47;1.30;;;0.80;;
9436;SDS011;4757;59.334;18.034;2023-03-02T03:04:19;0.80;;;0.60;;
9436;SDS011;4757;59.334;18.034;2023-03-02T03:06:54;1.70;;;0.60;;
9436;SDS011;4757;59.334;18.034;2023-03-02T03:09:23;0.50;;;0.50;;
9436;SDS011;4757;59.334;18.034;2023-03-02T03:11:53;0.87;;;0.40;;
9436;SDS011;4757;59.334;18.034;2023-03-02T03:14:56;0.87;;;0.60;;
9436;SDS011;4757;59.334;18.034;2023-03-02T03:17:16;0.70;;;0.57;;
9436;SDS011;4757;59.334;18.034;2023-03-02T03:19:44;0.50;;;0.50;;
9436;SDS011;4757;59.334;18.034;2023-03-02T03:22:13;1.50;;;0.60;;
9436;SDS011;4757;59.334;18.034;2023-03-02T03:24:42;2.10;;;1.27;;
9436;SDS011;4757;59.334;18.034;2023-03-02T03:27:12;2.73;;;0.90;;
9436;SDS011;4757;59.334;18.034;2023-03-02T03:29:44;0.40;;;0.40;;
9436;SDS011;4757;59.334;18.034;2023-03-02T03:32:14;1.80;;;0.70;;
9436;SDS011;4757;59.334;18.034;2023-03-02T03:34:41;1.37;;;0.93;;
9436;SDS011;4757;59.334;18.034;2023-03-02T03:37:09;1.27;;;0.60;;
9436;SDS011;4757;59.334;18.034;2023-03-02T03:39:39;0.60;;;0.60;;
9436;SDS011;4757;59.334;18.034;2023-03-02T03:42:07;1.30;;;0.70;;
9436;SDS011;4757;59.334;18.034;2023-03-02T03:44:35;0.53;;;0.53;;
9436;SDS011;4757;59.334;18.034;2023-03-02T03:47:02;0.67;;;0.67;;
9436;SDS011;4757;59.334;18.034;2023-03-02T03:49:29;1.23;;;0.80;;
9436;SDS011;4757;59.334;18.034;2023-03-02T03:51:57;1.00;;;0.90;;
9436;SDS011;4757;59.334;18.034;2023-03-02T03:54:25;0.77;;;0.60;;
9436;SDS011;4757;59.334;18.034;2023-03-02T03:56:52;0.50;;;0.40;;
9436;SDS011;4757;59.334;18.034;2023-03-02T03:59:21;0.80;;;0.63;;
9436;SDS011;4757;59.334;18.034;2023-03-02T04:01:51;0.60;;;0.60;;
9436;SDS011;4757;59.334;18.034;2023-03-02T04:04:25;0.50;;;0.50;;
9436;SDS011;4757;59.334;18.034;2023-03-02T04:06:54;0.77;;;0.50;;
9436;SDS011;4757;59.334;18.034;2023-03-02T04:09:22;0.93;;;0.50;;
9436;SDS011;4757;59.334;18.034;2023-03-02T04:11:50;4.53;;;1.10;;
9436;SDS011;4757;59.334;18.034;2023-03-02T04:14:19;2.17;;;0.70;;
9436;SDS011;4757;59.334;18.034;2023-03-02T04:16:48;2.83;;;0.80;;
9436;SDS011;4757;59.334;18.034;2023-03-02T04:19:16;0.80;;;0.50;;
9436;SDS011;4757;59.334;18.034;2023-03-02T04:21:44;1.70;;;0.60;;
9436;SDS011;4757;59.334;18.034;2023-03-02T04:24:17;1.03;;;0.40;;
9436;SDS011;4757;59.334;18.034;2023-03-02T04:26:46;0.50;;;0.50;;
9436;SDS011;4757;59.334;18.034;2023-03-02T04:29:14;0.60;;;0.53;;
9436;SDS011;4757;59.334;18.034;2023-03-02T04:31:42;0.97;;;0.60;;
9436;SDS011;4757;59.334;18.034;2023-03-02T04:34:09;0.70;;;0.63;;
9436;SDS011;4757;59.334;18.034;2023-03-02T04:36:37;1.10;;;0.80;;
9436;SDS011;4757;59.334;18.034;2023-03-02T04:39:05;1.30;;;0.70;;
9436;SDS011;4757;59.334;18.034;2023-03-02T04:41:33;0.70;;;0.70;;
9436;SDS011;4757;59.334;18.034;2023-03-02T04:44:01;0.80;;;0.80;;
9436;SDS011;4757;59.334;18.034;2023-03-02T04:46:28;0.63;;;0.57;;
9436;SDS011;4757;59.334;18.034;2023-03-02T04:48:55;1.60;;;0.67;;
9436;SDS011;4757;59.334;18.034;2023-03-02T04:51:24;1.00;;;0.87;;
9436;SDS011;4757;59.334;18.034;2023-03-02T04:53:54;1.60;;;1.20;;
9436;SDS011;4757;59.334;18.034;2023-03-02T04:56:23;0.60;;;0.60;;
9436;SDS011;4757;59.334;18.034;2023-03-02T04:58:50;0.40;;;0.40;;
9436;SDS011;4757;59.334;18.034;2023-03-02T05:01:17;0.73;;;0.73;;
9436;SDS011;4757;59.334;18.034;2023-03-02T05:03:45;0.57;;;0.57;;
9436;SDS011;4757;59.334;18.034;2023-03-02T05:06:13;0.60;;;0.60;;
9436;SDS011;4757;59.334;18.034;2023-03-02T05:08:40;1.10;;;0.70;;
9436;SDS011;4757;59.334;18.034;2023-03-02T05:11:09;0.47;;;0.47;;
9436;SDS011;4757;59.334;18.034;2023-03-02T05:13:48;0.50;;;0.50;;
9436;SDS011;4757;59.334;18.034;2023-03-02T05:16:28;0.70;;;0.60;;
9436;SDS011;4757;59.334;18.034;2023-03-02T05:18:58;0.90;;;0.70;;
9436;SDS011;4757;59.334;18.034;2023-03-02T05:21:26;0.50;;;0.50;;
9436;SDS011;4757;59.334;18.034;2023-03-02T05:23:53;0.60;;;0.60;;
9436;SDS011;4757;59.334;18.034;2023-03-02T05:26:20;1.17;;;0.80;;
9436;SDS011;4757;59.334;18.034;2023-03-02T05:28:47;0.50;;;0.50;;
9436;SDS011;4757;59.334;18.034;2023-03-02T05:31:21;0.90;;;0.60;;
9436;SDS011;4757;59.334;18.034;2023-03-02T05:34:01;1.37;;;0.80;;
9436;SDS011;4757;59.334;18.034;2023-03-02T05:36:30;0.60;;;0.60;;
9436;SDS011;4757;59.334;18.034;2023-03-02T05:38:58;1.67;;;0.80;;
9436;SDS011;4757;59.334;18.034;2023-03-02T05:41:25;2.50;;;0.87;;
9436;SDS011;4757;59.334;18.034;2023-03-02T05:43:52;1.87;;;1.10;;
9436;SDS011;4757;59.334;18.034;2023-03-02T05:46:20;0.80;;;0.80;;
9436;SDS011;4757;59.334;18.034;2023-03-02T05:48:47;2.17;;;0.80;;
9436;SDS011;4757;59.334;18.034;2023-03-02T05:51:14;0.90;;;0.60;;
9436;SDS011;4757;59.334;18.034;2023-03-02T05:53:41;0.30;;;0.30;;
9436;SDS011;4757;59.334;18.034;2023-03-02T05:56:09;0.53;;;0.53;;
9436;SDS011;4757;59.334;18.034;2023-03-02T05:58:36;0.97;;;0.93;;
9436;SDS011;4757;59.334;18.034;2023-03-02T06:01:08;4.63;;;0.60;;
9436;SDS011;4757;59.334;18.034;2023-03-02T06:03:40;0.57;;;0.57;;
9436;SDS011;4757;59.334;18.034;2023-03-02T06:06:08;0.67;;;0.67;;
9436;SDS011;4757;59.334;18.034;2023-03-02T06:08:40;1.27;;;0.73;;
9436;SDS011;4757;59.334;18.034;2023-03-02T06:11:10;0.70;;;0.70;;
9436;SDS011;4757;59.334;18.034;2023-03-02T06:13:38;0.73;;;0.53;;
9436;SDS011;4757;59.334;18.034;2023-03-02T06:16:06;0.80;;;0.80;;
9436;SDS011;4757;59.334;18.034;2023-03-02T06:18:34;0.50;;;0.50;;
9436;SDS011;4757;59.334;18.034;2023-03-02T06:21:02;0.97;;;0.80;;
9436;SDS011;4757;59.334;18.034;2023-03-02T06:23:29;2.07;;;0.77;;
9436;SDS011;4757;59.334;18.034;2023-03-02T06:25:57;1.10;;;1.00;;
9436;SDS011;4757;59.334;18.034;2023-03-02T06:28:24;4.43;;;3.17;;
9436;SDS011;4757;59.334;18.034;2023-03-02T06:30:52;1.57;;;0.80;;
9436;SDS011;4757;59.334;18.034;2023-03-02T06:33:19;3.50;;;1.37;;
9436;SDS011;4757;59.334;18.034;2023-03-02T06:35:47;2.40;;;0.67;;
9436;SDS011;4757;59.334;18.034;2023-03-02T06:38:15;0.80;;;0.63;;
9436;SDS011;4757;59.334;18.034;2023-03-02T06:40:42;1.10;;;0.80;;
9436;SDS011;4757;59.334;18.034;2023-03-02T06:43:09;0.93;;;0.90;;
9436;SDS011;4757;59.334;18.034;2023-03-02T06:45:37;0.60;;;0.60;;
9436;SDS011;4757;59.334;18.034;2023-03-02T06:48:04;1.30;;;1.20;;
9436;SDS011;4757;59.334;18.034;2023-03-02T06:50:32;1.27;;;1.00;;
9436;SDS011;4757;59.334;18.034;2023-03-02T06:53:00;1.53;;;0.87;;
9436;SDS011;4757;59.334;18.034;2023-03-02T06:55:27;1.43;;;1.13;;
9436;SDS011;4757;59.334;18.034;2023-03-02T06:57:55;2.80;;;1.40;;
9436;SDS011;4757;59.334;18.034;2023-03-02T07:00:22;3.53;;;0.90;;
9436;SDS011;4757;59.334;18.034;2023-03-02T07:02:51;1.43;;;1.10;;
9436;SDS011;4757;59.334;18.034;2023-03-02T07:05:20;1.63;;;1.10;;
9436;SDS011;4757;59.334;18.034;2023-03-02T07:07:49;1.53;;;0.80;;
9436;SDS011;4757;59.334;18.034;2023-03-02T07:10:16;2.10;;;0.90;;
9436;SDS011;4757;59.334;18.034;2023-03-02T07:12:43;0.73;;;0.73;;
9436;SDS011;4757;59.334;18.034;2023-03-02T07:15:10;1.23;;;0.80;;
9436;SDS011;4757;59.334;18.034;2023-03-02T07:17:40;4.37;;;1.37;;
9436;SDS011;4757;59.334;18.034;2023-03-02T07:20:08;1.00;;;0.90;;
9436;SDS011;4757;59.334;18.034;2023-03-02T07:22:37;0.97;;;0.80;;
9436;SDS011;4757;59.334;18.034;2023-03-02T07:25:05;1.73;;;0.80;;
9436;SDS011;4757;59.334;18.034;2023-03-02T07:27:33;1.80;;;0.90;;
9436;SDS011;4757;59.334;18.034;2023-03-02T07:30:00;3.10;;;1.40;;
9436;SDS011;4757;59.334;18.034;2023-03-02T07:32:27;2.77;;;0.97;;
9436;SDS011;4757;59.334;18.034;2023-03-02T07:34:55;5.43;;;1.13;;
9436;SDS011;4757;59.334;18.034;2023-03-02T07:37:23;4.90;;;1.10;;
9436;SDS011;4757;59.334;18.034;2023-03-02T07:39:50;4.07;;;1.30;;
9436;SDS011;4757;59.334;18.034;2023-03-02T07:42:17;2.80;;;0.87;;
9436;SDS011;4757;59.334;18.034;2023-03-02T07:44:44;4.47;;;1.00;;
9436;SDS011;4757;59.334;18.034;2023-03-02T07:47:11;3.50;;;1.00;;
9436;SDS011;4757;59.334;18.034;2023-03-02T07:49:38;4.97;;;0.70;;
9436;SDS011;4757;59.334;18.034;2023-03-02T07:52:06;4.40;;;0.90;;
9436;SDS011;4757;59.334;18.034;2023-03-02T07:54:33;4.10;;;1.20;;
9436;SDS011;4757;59.334;18.034;2023-03-02T07:57:00;4.40;;;1.10;;
9436;SDS011;4757;59.334;18.034;2023-03-02T07:59:27;2.20;;;1.20;;
9436;SDS011;4757;59.334;18.034;2023-03-02T08:01:55;2.47;;;1.07;;
9436;SDS011;4757;59.334;18.034;2023-03-02T08:04:23;5.30;;;1.13;;
9436;SDS011;4757;59.334;18.034;2023-03-02T08:06:50;4.90;;;1.00;;
9436;SDS011;4757;59.334;18.034;2023-03-02T08:09:17;2.30;;;1.10;;
9436;SDS011;4757;59.334;18.034;2023-03-02T08:11:44;6.93;;;1.03;;
9436;SDS011;4757;59.334;18.034;2023-03-02T08:14:13;7.63;;;1.10;;
9436;SDS011;4757;59.334;18.034;2023-03-02T08:16:40;4.27;;;1.87;;
9436;SDS011;4757;59.334;18.034;2023-03-02T08:19:07;2.57;;;1.00;;
9436;SDS011;4757;59.334;18.034;2023-03-02T08:21:35;6.83;;;1.47;;
9436;SDS011;4757;59.334;18.034;2023-03-02T08:24:02;5.63;;;1.57;;
9436;SDS011;4757;59.334;18.034;2023-03-02T08:26:29;6.50;;;1.10;;
9436;SDS011;4757;59.334;18.034;2023-03-02T08:28:57;4.13;;;1.20;;
9436;SDS011;4757;59.334;18.034;2023-03-02T08:31:25;1.80;;;1.07;;
9436;SDS011;4757;59.334;18.034;2023-03-02T08:33:52;9.60;;;1.70;;
9436;SDS011;4757;59.334;18.034;2023-03-02T08:36:19;4.10;;;1.47;;
9436;SDS011;4757;59.334;18.034;2023-03-02T08:38:47;8.70;;;2.13;;
9436;SDS011;4757;59.334;18.034;2023-03-02T08:41:16;7.87;;;1.73;;
9436;SDS011;4757;59.334;18.034;2023-03-02T08:43:45;6.53;;;2.10;;
9436;SDS011;4757;59.334;18.034;2023-03-02T08:46:13;5.23;;;1.60;;
9436;SDS011;4757;59.334;18.034;2023-03-02T08:48:43;4.60;;;1.40;;
9436;SDS011;4757;59.334;18.034;2023-03-02T08:51:12;6.57;;;1.50;;
9436;SDS011;4757;59.334;18.034;2023-03-02T08:53:43;6.83;;;1.53;;
9436;SDS011;4757;59.334;18.034;2023-03-02T08:56:25;6.53;;;1.60;;
9436;SDS011;4757;59.334;18.034;2023-03-02T08:58:58;12.50;;;2.00;;
9436;SDS011;4757;59.334;18.034;2023-03-02T09:01:28;4.53;;;1.27;;
9436;SDS011;4757;59.334;18.034;2023-03-02T09:03:58;15.37;;;2.50;;
9436;SDS011;4757;59.334;18.034;2023-03-02T09:06:27;8.83;;;1.93;;
9436;SDS011;4757;59.334;18.034;2023-03-02T09:08:56;10.43;;;3.13;;
9436;SDS011;4757;59.334;18.034;2023-03-02T09:11:23;8.10;;;1.43;;
9436;SDS011;4757;59.334;18.034;2023-03-02T09:13:51;3.80;;;1.70;;
9436;SDS011;4757;59.334;18.034;2023-03-02T09:16:19;6.90;;;1.43;;
9436;SDS011;4757;59.334;18.034;2023-03-02T09:18:47;8.03;;;2.07;;
9436;SDS011;4757;59.334;18.034;2023-03-02T09:21:14;6.90;;;2.53;;
9436;SDS011;4757;59.334;18.034;2023-03-02T09:23:41;15.23;;;2.20;;
9436;SDS011;4757;59.334;18.034;2023-03-02T09:26:09;12.30;;;2.20;;
9436;SDS011;4757;59.334;18.034;2023-03-02T09:28:36;13.93;;;2.60;;
9436;SDS011;4757;59.334;18.034;2023-03-02T09:31:05;9.07;;;2.13;;
9436;SDS011;4757;59.334;18.034;2023-03-02T09:33:33;15.80;;;2.10;;
9436;SDS011;4757;59.334;18.034;2023-03-02T09:36:08;17.93;;;2.93;;
9436;SDS011;4757;59.334;18.034;2023-03-02T09:38:37;5.60;;;1.53;;
9436;SDS011;4757;59.334;18.034;2023-03-02T09:46:49;4.77;;;1.23;;
9436;SDS011;4757;59.334;18.034;2023-03-02T09:52:09;6.63;;;2.00;;
9436;SDS011;4757;59.334;18.034;2023-03-02T09:54:59;21.67;;;3.30;;
9436;SDS011;4757;59.334;18.034;2023-03-02T09:57:47;10.00;;;1.70;;
9436;SDS011;4757;59.334;18.034;2023-03-02T10:00:18;5.73;;;1.40;;
9436;SDS011;4757;59.334;18.034;2023-03-02T10:02:53;17.03;;;2.83;;
9436;SDS011;4757;59.334;18.034;2023-03-02T10:05:41;13.40;;;2.50;;
9436;SDS011;4757;59.334;18.034;2023-03-02T10:08:17;18.70;;;4.07;;
9436;SDS011;4757;59.334;18.034;2023-03-02T10:10:51;14.00;;;2.30;;
9436;SDS011;4757;59.334;18.034;2023-03-02T10:13:42;26.03;;;3.60;;
9436;SDS011;4757;59.334;18.034;2023-03-02T10:21:39;6.57;;;1.80;;
9436;SDS011;4757;59.334;18.034;2023-03-02T10:27:27;10.23;;;2.70;;
9436;SDS011;4757;59.334;18.034;2023-03-02T10:30:22;11.30;;;2.37;;
9436;SDS011;4757;59.334;18.034;2023-03-02T10:33:01;5.53;;;1.47;;
9436;SDS011;4757;59.334;18.034;2023-03-02T10:35:35;13.47;;;2.93;;
9436;SDS011;4757;59.334;18.034;2023-03-02T10:38:14;17.87;;;2.80;;
9436;SDS011;4757;59.334;18.034;2023-03-02T10:40:49;9.33;;;2.00;;
9436;SDS011;4757;59.334;18.034;2023-03-02T10:46:04;10.53;;;1.60;;
9436;SDS011;4757;59.334;18.034;2023-03-02T10:48:48;12.37;;;2.80;;
9436;SDS011;4757;59.334;18.034;2023-03-02T10:54:08;12.07;;;1.90;;
9436;SDS011;4757;59.334;18.034;2023-03-02T10:56:40;13.80;;;3.13;;
9436;SDS011;4757;59.334;18.034;2023-03-02T10:59:13;7.03;;;2.77;;
9436;SDS011;4757;59.334;18.034;2023-03-02T11:02:25;7.90;;;2.10;;
9436;SDS011;4757;59.334;18.034;2023-03-02T11:04:58;11.40;;;2.67;;
9436;SDS011;4757;59.334;18.034;2023-03-02T11:07:55;12.27;;;2.67;;
9436;SDS011;4757;59.334;18.034;2023-03-02T11:10:53;6.03;;;2.90;;
9436;SDS011;4757;59.334;18.034;2023-03-02T11:15:56;9.30;;;2.07;;
9436;SDS011;4757;59.334;18.034;2023-03-02T11:21:19;7.50;;;2.07;;
9436;SDS011;4757;59.334;18.034;2023-03-02T11:26:33;3.97;;;2.00;;
9436;SDS011;4757;59.334;18.034;2023-03-02T11:29:28;15.40;;;2.17;;
9436;SDS011;4757;59.334;18.034;2023-03-02T11:32:07;16.30;;;2.73;;
9436;SDS011;4757;59.334;18.034;2023-03-02T11:34:50;11.37;;;3.17;;
9436;SDS011;4757;59.334;18.034;2023-03-02T11:37:45;6.13;;;1.53;;
9436;SDS011;4757;59.334;18.034;2023-03-02T11:40:21;11.20;;;1.87;;
9436;SDS011;4757;59.334;18.034;2023-03-02T11:43:12;8.83;;;1.50;;
9436;SDS011;4757;59.334;18.034;2023-03-02T11:45:41;11.07;;;2.67;;
9436;SDS011;4757;59.334;18.034;2023-03-02T11:50:49;7.30;;;1.73;;
9436;SDS011;4757;59.334;18.034;2023-03-02T11:53:20;8.70;;;1.73;;
9436;SDS011;4757;59.334;18.034;2023-03-02T11:55:52;13.23;;;2.20;;
9436;SDS011;4757;59.334;18.034;2023-03-02T11:58:22;8.13;;;2.03;;
9436;SDS011;4757;59.334;18.034;2023-03-02T12:00:52;8.67;;;1.53;;
9436;SDS011;4757;59.334;18.034;2023-03-02T12:05:59;10.03;;;2.27;;
9436;SDS011;4757;59.334;18.034;2023-03-02T12:08:52;11.67;;;1.77;;
9436;SDS011;4757;59.334;18.034;2023-03-02T12:11:36;9.83;;;2.53;;
9436;SDS011;4757;59.334;18.034;2023-03-02T12:14:27;10.07;;;1.87;;
9436;SDS011;4757;59.334;18.034;2023-03-02T12:17:17;7.10;;;2.00;;
9436;SDS011;4757;59.334;18.034;2023-03-02T12:19:48;9.07;;;1.70;;
9436;SDS011;4757;59.334;18.034;2023-03-02T12:22:27;5.63;;;1.60;;
9436;SDS011;4757;59.334;18.034;2023-03-02T12:25:04;2.93;;;1.50;;
9436;SDS011;4757;59.334;18.034;2023-03-02T12:27:44;11.43;;;2.10;;
9436;SDS011;4757;59.334;18.034;2023-03-02T12:35:48;3.77;;;1.90;;
9436;SDS011;4757;59.334;18.034;2023-03-02T12:38:29;4.97;;;1.70;;
9436;SDS011;4757;59.334;18.034;2023-03-02T12:41:14;18.77;;;2.20;;
9436;SDS011;4757;59.334;18.034;2023-03-02T12:46:33;9.27;;;1.60;;
9436;SDS011;4757;59.334;18.034;2023-03-02T12:51:42;12.33;;;2.43;;
9436;SDS011;4757;59.334;18.034;2023-03-02T12:54:12;9.23;;;1.80;;
9436;SDS011;4757;59.334;18.034;2023-03-02T12:57:00;7.43;;;1.50;;
9436;SDS011;4757;59.334;18.034;2023-03-02T12:59:34;5.03;;;1.93;;
9436;SDS011;4757;59.334;18.034;2023-03-02T13:02:09;7.07;;;1.77;;
9436;SDS011;4757;59.334;18.034;2023-03-02T13:04:51;14.67;;;2.67;;
9436;SDS011;4757;59.334;18.034;2023-03-02T13:07:34;17.10;;;1.60;;
9436;SDS011;4757;59.334;18.034;2023-03-02T13:10:06;12.00;;;1.73;;
9436;SDS011;4757;59.334;18.034;2023-03-02T13:12:55;11.60;;;1.80;;
9436;SDS011;4757;59.334;18.034;2023-03-02T13:15:24;8.73;;;1.50;;
9436;SDS011;4757;59.334;18.034;2023-03-02T13:17:56;10.67;;;3.10;;
9436;SDS011;4757;59.334;18.034;2023-03-02T13:20:26;4.83;;;1.40;;
9436;SDS011;4757;59.334;18.034;2023-03-02T13:22:55;11.23;;;1.93;;
9436;SDS011;4757;59.334;18.034;2023-03-02T13:25:27;12.07;;;1.83;;
9436;SDS011;4757;59.334;18.034;2023-03-02T13:27:57;9.00;;;1.40;;
9436;SDS011;4757;59.334;18.034;2023-03-02T13:30:33;8.27;;;1.40;;
9436;SDS011;4757;59.334;18.034;2023-03-02T13:33:16;2.47;;;1.20;;
9436;SDS011;4757;59.334;18.034;2023-03-02T13:35:47;8.63;;;2.03;;
9436;SDS011;4757;59.334;18.034;2023-03-02T13:38:18;15.67;;;2.67;;
9436;SDS011;4757;59.334;18.034;2023-03-02T13:40:48;13.17;;;2.07;;
9436;SDS011;4757;59.334;18.034;2023-03-02T13:43:32;12.47;;;2.33;;
9436;SDS011;4757;59.334;18.034;2023-03-02T13:46:04;3.27;;;1.17;;
9436;SDS011;4757;59.334;18.034;2023-03-02T13:48:53;7.07;;;1.50;;
9436;SDS011;4757;59.334;18.034;2023-03-02T13:51:39;15.77;;;2.60;;
9436;SDS011;4757;59.334;18.034;2023-03-02T13:54:14;7.37;;;1.53;;
9436;SDS011;4757;59.334;18.034;2023-03-02T13:56:47;7.80;;;1.70;;
9436;SDS011;4757;59.334;18.034;2023-03-02T13:59:17;9.50;;;1.43;;
9436;SDS011;4757;59.334;18.034;2023-03-02T14:01:48;17.60;;;2.70;;
9436;SDS011;4757;59.334;18.034;2023-03-02T14:04:17;5.47;;;1.60;;
9436;SDS011;4757;59.334;18.034;2023-03-02T14:06:49;14.87;;;2.00;;
9436;SDS011;4757;59.334;18.034;2023-03-02T14:09:17;11.90;;;2.10;;
9436;SDS011;4757;59.334;18.034;2023-03-02T14:11:49;14.83;;;3.07;;
9436;SDS011;4757;59.334;18.034;2023-03-02T14:14:19;10.60;;;1.80;;
9436;SDS011;4757;59.334;18.034;2023-03-02T14:16:48;8.27;;;1.63;;
9436;SDS011;4757;59.334;18.034;2023-03-02T14:19:16;8.37;;;1.50;;
9436;SDS011;4757;59.334;18.034;2023-03-02T14:21:44;7.60;;;1.60;;
9436;SDS011;4757;59.334;18.034;2023-03-02T14:24:12;11.17;;;2.37;;
9436;SDS011;4757;59.334;18.034;2023-03-02T14:26:40;7.40;;;1.77;;
9436;SDS011;4757;59.334;18.034;2023-03-02T14:29:28;7.87;;;1.27;;
9436;SDS011;4757;59.334;18.034;2023-03-02T14:31:58;7.30;;;1.40;;
9436;SDS011;4757;59.334;18.034;2023-03-02T14:34:29;7.50;;;1.60;;
9436;SDS011;4757;59.334;18.034;2023-03-02T14:36:57;8.20;;;1.30;;
9436;SDS011;4757;59.334;18.034;2023-03-02T14:39:32;13.63;;;2.00;;
9436;SDS011;4757;59.334;18.034;2023-03-02T14:42:16;7.87;;;2.77;;
9436;SDS011;4757;59.334;18.034;2023-03-02T14:44:48;3.93;;;2.17;;
9436;SDS011;4757;59.334;18.034;2023-03-02T14:47:16;4.67;;;1.60;;
9436;SDS011;4757;59.334;18.034;2023-03-02T14:49:47;5.90;;;1.70;;
9436;SDS011;4757;59.334;18.034;2023-03-02T14:52:25;5.50;;;1.63;;
9436;SDS011;4757;59.334;18.034;2023-03-02T14:55:30;6.93;;;1.77;;
9436;SDS011;4757;59.334;18.034;2023-03-02T15:00:29;11.60;;;2.10;;
9436;SDS011;4757;59.334;18.034;2023-03-02T15:02:56;16.93;;;2.17;;
9436;SDS011;4757;59.334;18.034;2023-03-02T15:05:26;6.50;;;1.93;;
9436;SDS011;4757;59.334;18.034;2023-03-02T15:07:53;2.73;;;1.30;;
9436;SDS011;4757;59.334;18.034;2023-03-02T15:10:24;10.03;;;2.23;;
9436;SDS011;4757;59.334;18.034;2023-03-02T15:12:51;8.30;;;2.37;;
9436;SDS011;4757;59.334;18.034;2023-03-02T15:15:19;9.27;;;1.77;;
9436;SDS011;4757;59.334;18.034;2023-03-02T15:17:46;4.57;;;1.50;;
9436;SDS011;4757;59.334;18.034;2023-03-02T15:20:14;7.60;;;1.63;;
9436;SDS011;4757;59.334;18.034;2023-03-02T15:22:41;10.60;;;2.00;;
9436;SDS011;4757;59.334;18.034;2023-03-02T15:25:09;7.73;;;2.17;;
9436;SDS011;4757;59.334;18.034;2023-03-02T15:27:36;7.53;;;2.47;;
9436;SDS011;4757;59.334;18.034;2023-03-02T15:30:04;3.73;;;1.50;;
9436;SDS011;4757;59.334;18.034;2023-03-02T15:32:31;6.33;;;1.77;;
9436;SDS011;4757;59.334;18.034;2023-03-02T15:34:59;13.67;;;2.30;;
9436;SDS011;4757;59.334;18.034;2023-03-02T15:37:26;8.80;;;2.50;;
9436;SDS011;4757;59.334;18.034;2023-03-02T15:39:57;5.50;;;1.70;;
9436;SDS011;4757;59.334;18.034;2023-03-02T15:42:24;6.03;;;1.70;;
9436;SDS011;4757;59.334;18.034;2023-03-02T15:44:52;11.10;;;2.13;;
9436;SDS011;4757;59.334;18.034;2023-03-02T15:47:19;7.17;;;2.27;;
9436;SDS011;4757;59.334;18.034;2023-03-02T15:49:46;6.17;;;1.77;;
9436;SDS011;4757;59.334;18.034;2023-03-02T15:52:13;10.57;;;2.00;;
9436;SDS011;4757;59.334;18.034;2023-03-02T15:54:41;2.10;;;1.13;;
9436;SDS011;4757;59.334;18.034;2023-03-02T15:57:08;5.20;;;1.53;;
9436;SDS011;4757;59.334;18.034;2023-03-02T15:59:35;15.53;;;3.03;;
9436;SDS011;4757;59.334;18.034;2023-03-02T16:02:03;9.40;;;1.53;;
9436;SDS011;4757;59.334;18.034;2023-03-02T16:04:31;21.67;;;3.30;;
9436;SDS011;4757;59.334;18.034;2023-03-02T16:06:59;5.03;;;1.20;;
9436;SDS011;4757;59.334;18.034;2023-03-02T16:09:26;6.13;;;1.30;;
9436;SDS011;4757;59.334;18.034;2023-03-02T16:11:56;6.63;;;1.60;;
9436;SDS011;4757;59.334;18.034;2023-03-02T16:14:24;11.87;;;2.00;;
9436;SDS011;4757;59.334;18.034;2023-03-02T16:16:51;7.23;;;1.67;;
9436;SDS011;4757;59.334;18.034;2023-03-02T16:19:19;8.00;;;1.60;;
9436;SDS011;4757;59.334;18.034;2023-03-02T16:21:46;3.70;;;1.47;;